Buoy 48633

sailwx.info

Track history (hours):
 
Tides and Currents Weather Stations Pressure Air Temp Water Temp Dewpoint Dewpoint Depression Visibility Wind Speed Wind Dir Waves Ship Positions

Drifting buoy 48633

Last reported at 2018-Feb-17 18:09 UTC. Time now 2018-Feb-17 19:24 UTC.
Position N 70°49' W 154°00'.

Barometer 1033.0 mb
Water temperature -10.3 ° C

Date/timePositionNaut miles runAvg speedWind from/ knotsBaromVisibWave heightAir tempDewpointWater temp
2018-Feb-17 18:09N 70°49' W 154°00'0 0.0 1033.0 -10.3
2018-Feb-17 17:04N 70°49' W 154°00'0 0.0 1033.1 -10.2
2018-Feb-17 17:00N 70°49' W 154°00'0 0.0 1033.1 -50.8
2018-Feb-17 16:04N 70°49' W 154°00'0 0.0 1033.1 -10.0
2018-Feb-17 16:00N 70°49' W 154°00'0 0.0 1033.1 -50.1 -10.0
2018-Feb-17 15:05N 70°49' W 154°00'0 0.0 1033.5 -9.9
2018-Feb-17 15:00N 70°49' W 154°00'0 0.0 1033.5 -48.6 -9.9
2018-Feb-17 14:05N 70°49' W 154°00'0 0.0 1033.6 -9.8
2018-Feb-17 13:05N 70°49' W 154°00'0 0.0 1033.7 -9.7
2018-Feb-17 13:00N 70°49' W 154°00'0 0.0 1033.7 -43.9 -9.7
2018-Feb-17 12:05N 70°49' W 154°00'0 0.0 1033.8 -9.7
2018-Feb-17 12:00N 70°49' W 154°00'0 0.0 1033.8 -42.7 -9.7
2018-Feb-17 11:05N 70°49' W 154°00'0 0.0 1033.8 -9.6
2018-Feb-17 11:00N 70°49' W 154°00'0 0.0 1033.8 -44.1 -9.6
2018-Feb-17 10:05N 70°49' W 154°00'0 0.0 1033.5 -9.5
2018-Feb-17 10:00N 70°49' W 154°00'0 0.0 1033.5 -44.9 -9.5
2018-Feb-17 09:04N 70°49' W 154°00'0 0.0 1033.1 -9.4
2018-Feb-17 09:00N 70°49' W 154°00'0 0.0 1033.1 -45.1 -9.4
2018-Feb-17 08:04N 70°49' W 154°00'0 0.0 1033.2 -9.2
2018-Feb-17 08:00N 70°49' W 154°00'0 0.0 1033.2 -47.4 -9.2
2018-Feb-17 07:04N 70°49' W 154°00'0 0.0 1032.8 -9.1
2018-Feb-17 07:00N 70°49' W 154°00'0 0.0 1032.8 -44.5 -9.1
2018-Feb-17 06:05N 70°49' W 154°00'0 0.0 1032.6 -9.0
2018-Feb-17 06:00N 70°49' W 154°00'0 0.0 1032.6 -35.8 -9.0
2018-Feb-17 05:04N 70°49' W 154°00'0 0.0 1032.5 -9.0
2018-Feb-17 05:00N 70°49' W 154°00'0 0.0 1032.5 -33.3 -9.0
2018-Feb-17 04:05N 70°49' W 154°00'0 0.0 1032.4 -9.0
2018-Feb-17 03:04N 70°49' W 154°00'0 0.0 1031.9 -9.0
2018-Feb-17 02:04N 70°49' W 154°00'0 0.0 1031.5 -9.0
2018-Feb-17 02:00N 70°49' W 154°00'0 0.0 1031.5 -29.3 -9.0
2018-Feb-17 01:04N 70°49' W 154°00'0 0.0 1031.3 -9.1
2018-Feb-17 01:00N 70°49' W 154°00'0 0.0 1031.3 -28.0 -9.1
2018-Feb-17 00:06N 70°49' W 154°00'0 0.0 1030.8 -9.1
2018-Feb-17 00:00N 70°49' W 154°00'0 0.0 1030.8 -27.6 -9.1
2018-Feb-16 23:05N 70°49' W 154°00'0 0.0 1030.5 -9.2
2018-Feb-16 23:00N 70°49' W 154°00'0 0.0 1030.5 -27.8 -9.2
2018-Feb-16 22:04N 70°49' W 154°00'0 0.0 1030.1 -9.2
2018-Feb-16 22:00N 70°49' W 154°00'0 0.0 1030.1 -28.2 -9.2
2018-Feb-16 21:00N 70°49' W 154°00'0 0.0 1029.7 -28.7 -9.3
2018-Feb-16 20:08N 70°49' W 154°00'0 0.0 1029.3 -9.3
2018-Feb-16 20:00N 70°49' W 154°00'0 0.0 1029.3 -29.5 -9.3
2018-Feb-16 19:05N 70°49' W 154°00'0 0.0 1028.7 -9.3
2018-Feb-16 19:00N 70°49' W 154°00'0 0.0 1028.7 -29.7 -9.3
2018-Feb-16 18:05N 70°49' W 154°00'0 0.0 1028.4 -9.3
2018-Feb-16 18:00N 70°49' W 154°00'0 0.0 1028.4 -30.2 -9.3
2018-Feb-16 17:05N 70°49' W 154°00'0 0.0 1027.9 -9.3
2018-Feb-16 17:00N 70°49' W 154°00'0 0.0 1027.9 -31.2 -9.3
2018-Feb-16 16:05N 70°49' W 154°00'0 0.0 1027.8 -9.3
2018-Feb-16 16:00N 70°49' W 154°00'0 0.0 1027.8 -33.1 -9.3
2018-Feb-16 15:05N 70°49' W 154°00'0 0.0 1027.4 -9.3
2018-Feb-16 15:00N 70°49' W 154°00'0 0.0 1027.4 -36.5 -9.3
2018-Feb-16 14:05N 70°49' W 154°00'0 0.0 1027.3 -9.2
2018-Feb-16 14:00N 70°49' W 154°00'0 0.0 1027.3 -34.8 -9.2
2018-Feb-16 13:05N 70°49' W 154°00'0 0.0 1027.3 -9.2
2018-Feb-16 13:00N 70°49' W 154°00'0 0.0 1027.3 -29.4 -9.2
2018-Feb-16 12:05N 70°49' W 154°00'0 0.0 1027.0 -9.3
2018-Feb-16 12:00N 70°49' W 154°00'0 0.0 1027.0 -29.0 -9.3
2018-Feb-16 11:06N 70°49' W 154°00'0 0.0 1026.7 -9.3
2018-Feb-16 11:00N 70°49' W 154°00'0 0.0 1026.7 -27.5 -9.3
2018-Feb-16 10:04N 70°49' W 154°00'0 0.0 1026.5 -9.3
2018-Feb-16 10:00N 70°49' W 154°00'0 0.0 1026.5 -28.1 -9.3
2018-Feb-16 09:00N 70°49' W 154°00'0 0.0 1026.1 -28.0 -9.4
2018-Feb-16 08:05N 70°49' W 154°00'0 0.0 1025.4 -9.4
2018-Feb-16 08:00N 70°49' W 154°00'0 0.0 1025.4 -27.5 -9.4
2018-Feb-16 07:05N 70°49' W 154°00'0 0.0 1024.9 -9.5
2018-Feb-16 07:00N 70°49' W 154°00'0 0.0 1024.9 -26.5 -9.5
2018-Feb-16 06:04N 70°49' W 154°00'0 0.0 1024.7 -9.5
2018-Feb-16 05:04N 70°49' W 154°00'0 0.0 1024.4 -9.6
2018-Feb-16 05:00N 70°49' W 154°00'0 0.0 1024.4 -26.5 -9.6
2018-Feb-16 04:06N 70°49' W 154°00'0 0.0 1023.8 -9.6
2018-Feb-16 04:00N 70°49' W 154°00'0 0.0 1023.8 -27.2 -9.6
2018-Feb-16 03:07N 70°49' W 154°00'0 0.0 1023.4 -9.7
2018-Feb-16 03:00N 70°49' W 154°00'0 0.0 1023.4 -27.3 -9.7
2018-Feb-16 02:04N 70°49' W 154°00'0 0.0 1023.1 -9.7
2018-Feb-16 01:04N 70°49' W 154°00'0 0.0 1022.8 -9.8
2018-Feb-16 01:00N 70°49' W 154°00'0 0.0 1022.8 -28.1 -9.8
2018-Feb-16 00:05N 70°49' W 154°00'0 0.0 1022.3 -9.9
2018-Feb-16 00:00N 70°49' W 154°00'0 0.0 1022.3 -27.9 -9.9
2018-Feb-15 23:07N 70°49' W 154°00'0 0.0 1021.9 -10.0
2018-Feb-15 23:00N 70°49' W 154°00'0 0.0 1021.9 -27.5 -10.0
2018-Feb-15 22:00N 70°49' W 154°00'0 0.0 1021.2 -29.0 -10.1
2018-Feb-15 21:05N 70°49' W 154°00'0 0.0 1020.6 -10.2
2018-Feb-15 21:00N 70°49' W 154°00'0 0.0 1020.6 -31.6
2018-Feb-15 20:05N 70°49' W 154°00'0 0.0 1020.0 -10.2
2018-Feb-15 20:00N 70°49' W 154°00'0 0.0 1020.0 -31.1
2018-Feb-15 19:05N 70°49' W 154°00'0 0.0 1019.2 -10.3
2018-Feb-15 19:00N 70°49' W 154°00'0 0.0 1019.2 -29.0
2018-Feb-15 18:00N 70°49' W 154°00'0 0.0 1018.8 -29.6
2018-Feb-15 17:05N 70°49' W 154°00'0 0.0 1018.5 -10.5
2018-Feb-15 17:00N 70°49' W 154°00'0 0.0 1018.5 -30.2
2018-Feb-15 16:04N 70°49' W 154°00'0 0.0 1018.0 -10.6
2018-Feb-15 16:00N 70°49' W 154°00'0 0.0 1018.0 -29.8
2018-Feb-15 15:04N 70°49' W 154°00'0 0.0 1017.5 -10.8
2018-Feb-15 15:00N 70°49' W 154°00'0 0.0 1017.5 -28.7
2018-Feb-15 14:06N 70°49' W 154°00'0 0.0 1017.2 -10.9
2018-Feb-15 14:00N 70°49' W 154°00'0 0.0 1017.2 -28.6
2018-Feb-15 13:05N 70°49' W 154°00'0 0.0 1016.6 -11.1
2018-Feb-15 13:00N 70°49' W 154°00'0 0.0 1016.6 -29.1
2018-Feb-15 12:00N 70°49' W 154°00'0 0.0 1016.0 -29.4 -11.2
2018-Feb-15 11:04N 70°49' W 154°00'0 0.0 1015.6 -11.5
2018-Feb-15 11:00N 70°49' W 154°00'0 0.0 1015.6 -29.0
2018-Feb-15 10:06N 70°49' W 154°00'0 0.0 1015.1 -11.7
2018-Feb-15 10:00N 70°49' W 154°00'0 0.0 1015.1 -29.4
2018-Feb-15 09:04N 70°49' W 154°00'0 0.0 1014.6 -11.9
2018-Feb-15 09:00N 70°49' W 154°00'0 0.0 1014.6 -31.2
2018-Feb-15 08:05N 70°49' W 154°00'0 0.0 1014.0 -12.2
2018-Feb-15 08:00N 70°49' W 154°00'0 0.0 1014.0 -36.1
2018-Feb-15 07:04N 70°49' W 154°00'0 0.0 1013.5 -12.3
2018-Feb-15 06:04N 70°49' W 154°00'0 0.0 1013.2 -12.5
2018-Feb-15 06:00N 70°49' W 154°00'0 0.0 1013.2 -41.6
2018-Feb-15 05:06N 70°49' W 154°00'0 0.0 1012.8 -12.7
2018-Feb-15 05:00N 70°49' W 154°00'0 0.0 1012.8 -43.2
2018-Feb-15 04:05N 70°49' W 154°00'0 0.0 1012.6 -12.9
2018-Feb-15 04:00N 70°49' W 154°00'0 0.0 1012.6 -43.4
2018-Feb-15 03:04N 70°49' W 154°00'0 0.0 1012.6 -13.1
2018-Feb-15 03:00N 70°49' W 154°00'0 0.0 1012.6 -44.7
2018-Feb-15 02:04N 70°49' W 154°00'0 0.0 1012.4 -13.3
2018-Feb-15 02:00N 70°49' W 154°00'0 0.0 1012.4 -45.8
2018-Feb-15 01:05N 70°49' W 154°00'0 0.0 1014.1 -14.8
2018-Feb-15 01:00N 70°49' W 154°00'0 0.0 1012.5 -46.9
2018-Feb-13 18:00N 70°49' W 154°00'0 0.0 1020.3 -57.4
2018-Feb-13 13:05N 70°49' W 154°00'0 0.0 1015.2 -10.6
2018-Feb-13 13:00N 70°49' W 154°00'0 0.0 1015.2 -52.4
2018-Feb-13 12:08N 70°49' W 154°00'0 0.0 1013.9 -10.3
2018-Feb-13 12:00N 70°49' W 154°00'0 0.0 1013.9 -49.4
2018-Feb-13 11:06N 70°49' W 154°00'0 0.0 1012.5 -10.1
2018-Feb-13 11:00N 70°49' W 154°00'0 0.0 1012.5 -44.8
2018-Feb-13 10:04N 70°49' W 154°00'0 0.0 1011.1 -9.9
2018-Feb-13 10:00N 70°49' W 154°00'0 0.0 1011.1 -43.3 -9.9
2018-Feb-13 09:08N 70°49' W 154°00'0 0.0 1009.8 -9.8
2018-Feb-13 09:00N 70°49' W 154°00'0 0.0 1009.8 -42.7 -9.8
2018-Feb-13 08:04N 70°49' W 154°00'0 0.0 1008.8 -9.7
2018-Feb-13 08:00N 70°49' W 154°00'0 0.0 1008.8 -42.1 -9.7
2018-Feb-13 07:07N 70°49' W 154°00'0 0.0 1007.4 -9.6
2018-Feb-13 07:00N 70°49' W 154°00'0 0.0 1007.4 -41.8 -9.6
2018-Feb-13 06:04N 70°49' W 154°00'0 0.0 1006.4 -9.5
2018-Feb-13 06:00N 70°49' W 154°00'0 0.0 1006.4 -40.6 -9.5
2018-Feb-13 05:04N 70°49' W 154°00'0 0.0 1005.2 -9.5
2018-Feb-13 05:00N 70°49' W 154°00'0 0.0 1005.2 -39.2 -9.5
2018-Feb-13 04:04N 70°49' W 154°00'0 0.0 1003.8 -9.4
2018-Feb-13 04:00N 70°49' W 154°00'0 0.0 1003.8 -36.5 -9.4
2018-Feb-13 03:07N 70°49' W 154°00'0 0.0 1002.8 -9.4
2018-Feb-13 03:00N 70°49' W 154°00'0 0.0 1002.8 -34.0 -9.4
2018-Feb-13 02:04N 70°49' W 154°00'0 0.0 1002.0 -9.4
2018-Feb-13 02:00N 70°49' W 154°00'0 0.0 1002.0 -32.4 -9.4
2018-Feb-13 01:04N 70°49' W 154°00'0 0.0 1001.2 -9.5
2018-Feb-13 01:00N 70°49' W 154°00'0 0.0 1001.2 -32.0 -9.5
2018-Feb-13 00:05N 70°49' W 154°00'0 0.0 1000.9 -9.5
2018-Feb-13 00:00N 70°49' W 154°00'0 0.0 1000.9 -30.3 -9.5
2018-Feb-12 23:07N 70°49' W 154°00'0 0.0 1000.5 -9.5
2018-Feb-12 23:00N 70°49' W 154°00'0 0.0 1000.5 -29.4 -9.5
2018-Feb-12 22:00N 70°49' W 154°00'0 0.0 999.9 -28.4 -9.5
2018-Feb-12 21:05N 70°49' W 154°00'0 0.0 999.4 -9.6
2018-Feb-12 21:00N 70°49' W 154°00'0 0.0 999.4 -27.6 -9.6
2018-Feb-12 20:06N 70°49' W 154°00'0 0.0 998.9 -9.6
2018-Feb-12 20:00N 70°49' W 154°00'0 0.0 998.9 -27.2 -9.6
2018-Feb-12 19:06N 70°49' W 154°00'0 0.0 998.6 -9.7
2018-Feb-12 19:00N 70°49' W 154°00'0 0.0 998.6 -27.4 -9.7
2018-Feb-12 18:07N 70°49' W 154°00'0 0.0 998.4 -9.7
2018-Feb-12 18:00N 70°49' W 154°00'0 0.0 998.4 -27.6 -9.7
2018-Feb-12 17:04N 70°49' W 154°00'0 0.0 998.5 -9.7
2018-Feb-12 17:00N 70°49' W 154°00'0 0.0 998.5 -27.9 -9.7
2018-Feb-12 16:05N 70°49' W 154°00'0 0.0 998.7 -9.8
2018-Feb-12 16:00N 70°49' W 154°00'0 0.0 998.7 -28.2 -9.8
2018-Feb-12 15:05N 70°49' W 154°00'0 0.0 998.7 -9.8
2018-Feb-12 15:00N 70°49' W 154°00'0 0.0 998.7 -27.6 -9.8
2018-Feb-12 14:00N 70°49' W 154°00'0 0.0 999.0 -26.7 -9.9
2018-Feb-12 13:00N 70°49' W 154°00'0 0.0 999.6 -26.8 -10.0
2018-Feb-12 12:00N 70°49' W 154°00'0 0.0 1000.4 -27.8
2018-Feb-12 11:00N 70°49' W 154°00'0 0.0 1000.7 -28.7
2018-Feb-12 10:00N 70°49' W 154°00'0 0.0 1001.2 -29.6
2018-Feb-12 09:00N 70°49' W 154°00'0 0.0 1001.4 -31.7
2018-Feb-12 08:00N 70°49' W 154°00'0 0.0 1001.8 -33.6
2018-Feb-12 07:00N 70°49' W 154°00'0 0.0 1002.2 -35.9
2018-Feb-12 06:00N 70°49' W 154°00'0 0.0 1002.7 -33.9
2018-Feb-12 05:00N 70°49' W 154°00'0 0.0 1003.6 -28.9
2018-Feb-12 04:00N 70°49' W 154°00'0 0.0 1004.3 -27.4
2018-Feb-12 03:00N 70°49' W 154°00'0 0.0 1005.0 -28.4
2018-Feb-12 02:00N 70°49' W 154°00'0 0.0 1005.6 -29.4
2018-Feb-12 01:00N 70°49' W 154°00'0 0.0 1006.4 -30.3
2018-Feb-12 00:00N 70°49' W 154°00'0 0.0 1007.2 -31.7
2018-Feb-11 23:00N 70°49' W 154°00'0 0.0 1007.9 -33.4
2018-Feb-11 22:00N 70°49' W 154°00'0 0.0 1008.4 -35.6
2018-Feb-11 21:00N 70°49' W 154°00'0 0.0 1008.8 -38.1
2018-Feb-11 20:00N 70°49' W 154°00'0 0.0 1009.5 -39.8
2018-Feb-11 19:00N 70°49' W 154°00'0 0.0 1010.1 -43.4
2018-Feb-11 18:00N 70°49' W 154°00'0 0.0 1010.4 -45.6
2018-Feb-11 17:00N 70°49' W 154°00'0 0.0 1010.9 -46.9
2018-Feb-11 16:00N 70°49' W 154°00'0 0.0 1011.2 -47.7
2018-Feb-11 15:00N 70°49' W 154°00'0 0.0 1011.4 -49.5
2018-Feb-11 14:00N 70°49' W 154°00'0 0.0 1011.7 -49.4
2018-Feb-11 13:00N 70°49' W 154°00'0 0.0 1012.2 -47.9
2018-Feb-11 12:00N 70°49' W 154°00'0 0.0 1011.9 -46.0
2018-Feb-11 11:00N 70°49' W 154°00'0 0.0 1011.8 -46.6
2018-Feb-11 10:00N 70°49' W 154°00'0 0.0 1011.9 -49.8
2018-Feb-11 09:00N 70°49' W 154°00'0 0.0 1012.4 -49.5
2018-Feb-11 08:00N 70°49' W 154°00'0 0.0 1012.6 -48.1
2018-Feb-11 07:00N 70°49' W 154°00'0 0.0 1013.0 -47.7
2018-Feb-11 06:00N 70°49' W 154°00'0 0.0 1013.5 -47.5
2018-Feb-11 05:00N 70°49' W 154°00'0 0.0 1014.3 -49.4
2018-Feb-11 04:00N 70°49' W 154°00'0 0.0 1014.5 -48.9
2018-Feb-11 03:00N 70°49' W 154°00'0 0.0 1015.7 -48.3
2018-Feb-11 02:00N 70°49' W 154°00'0 0.0 1015.8 -46.8
2018-Feb-11 01:00N 70°49' W 154°00'0 0.0 1016.4 -46.5
2018-Feb-11 00:00N 70°49' W 154°00'0 0.0 1017.3 -47.1
2018-Feb-10 23:00N 70°49' W 154°00'0 0.0 1018.4 -47.8
2018-Feb-10 22:00N 70°49' W 154°00'0 0.0 1019.5 -48.3
2018-Feb-10 21:00N 70°49' W 154°00'0 0.0 1020.3 -48.1
2018-Feb-10 20:00N 70°49' W 154°00'0 0.0 1020.9 -48.0
2018-Feb-10 19:00N 70°49' W 154°00'0 0.0 1021.1 -47.9
2018-Feb-10 18:00N 70°49' W 154°00'0 0.0 1022.3 -47.8
2018-Feb-10 17:00N 70°49' W 154°00'0 0.0 1022.7 -47.8
2018-Feb-10 16:00N 70°49' W 154°00'0 0.0 1023.3 -47.6
2018-Feb-10 15:00N 70°49' W 154°00'0 0.0 1024.0 -46.8
2018-Feb-10 14:00N 70°49' W 154°00'0 0.0 1024.5 -45.3
2018-Feb-10 13:00N 70°49' W 154°00'0 0.0 1025.4 -42.5
2018-Feb-10 12:00N 70°49' W 154°00'0 0.0 1026.0 -39.1
2018-Feb-10 11:00N 70°49' W 154°00'0 0.0 1026.2 -40.2
2018-Feb-10 10:00N 70°49' W 154°00'0 0.0 1026.8 -38.8
2018-Feb-10 09:00N 70°49' W 154°00'0 0.0 1026.6 -37.9
2018-Feb-10 08:00N 70°49' W 154°00'0 0.0 1027.0 -36.5
2018-Feb-10 07:00N 70°49' W 154°00'0 0.0 1027.2 -38.3
2018-Feb-10 06:00N 70°49' W 154°00'0 0.0 1027.0 -41.3
2018-Feb-10 05:00N 70°49' W 154°00'0 0.0 1026.9 -45.7
2018-Feb-10 04:00N 70°49' W 154°00'0 0.0 1027.0 -39.8
2018-Feb-10 03:00N 70°49' W 154°00'0 0.0 1026.9 -37.5
2018-Feb-10 02:00N 70°49' W 154°00'0 0.0 1027.2 -40.8
2018-Feb-10 01:00N 70°49' W 154°00'0 0.0 1026.9 -45.6
2018-Feb-09 23:00N 70°49' W 154°00'0 0.0 1027.5 -48.7
2018-Feb-09 22:00N 70°49' W 154°00'0 0.0 1027.4 -47.1
2018-Feb-09 21:00N 70°49' W 154°00'0 0.0 1026.8 -50.6
2018-Feb-09 20:00N 70°49' W 154°00'0 0.0 1026.0 -51.6
2018-Feb-09 19:00N 70°49' W 154°00'0 0.0 1026.0 -51.1
2018-Feb-09 18:00N 70°49' W 154°00'0 0.0 1025.5 -50.9
2018-Feb-09 17:00N 70°49' W 154°00'0 0.0 1025.6 -50.7
2018-Feb-09 16:00N 70°49' W 154°00'0 0.0 1025.8 -51.1
2018-Feb-09 15:00N 70°49' W 154°00'0 0.0 1025.7 -51.4
2018-Feb-09 14:00N 70°49' W 154°00'0 0.0 1025.6 -52.0
2018-Feb-09 13:00N 70°49' W 154°00'0 0.0 1026.0 -52.4
2018-Feb-09 12:00N 70°49' W 154°00'0 0.0 1026.4 -52.2
2018-Feb-09 11:00N 70°49' W 154°00'0 0.0 1026.5 -51.5
2018-Feb-09 10:00N 70°49' W 154°00'0 0.0 1027.0 -50.4
2018-Feb-09 09:00N 70°49' W 154°00'0 0.0 1027.1 -49.5
2018-Feb-09 08:00N 70°49' W 154°00'0 0.0 1028.0 -47.9
2018-Feb-09 07:00N 70°49' W 154°00'0 0.0 1028.3 -49.5
2018-Feb-09 06:00N 70°49' W 154°00'0 0.0 1028.6 -48.5
2018-Feb-09 05:00N 70°49' W 154°00'0 0.0 1029.3 -47.1
2018-Feb-09 04:00N 70°49' W 154°00'0 0.0 1029.7 -45.9
2018-Feb-09 03:00N 70°49' W 154°00'0 0.0 1029.8 -44.7
2018-Feb-09 02:00N 70°49' W 154°00'0 0.0 1030.1 -41.7
2018-Feb-09 01:00N 70°49' W 154°00'0 0.0 1030.4 -36.2
2018-Feb-09 00:00N 70°49' W 154°00'0 0.0 1030.6 -33.4
2018-Feb-08 23:00N 70°49' W 154°00'0 0.0 1031.0 -34.3
2018-Feb-08 22:00N 70°49' W 154°00'0 0.0 1030.6 -34.9
2018-Feb-08 21:00N 70°49' W 154°00'0 0.0 1030.6 -35.3
2018-Feb-08 20:00N 70°49' W 154°00'0 0.0 1030.5 -35.5
2018-Feb-08 19:00N 70°49' W 154°00'0 0.0 1030.5 -36.2
2018-Feb-08 18:00N 70°49' W 154°00'0 0.0 1030.4 -37.0
2018-Feb-08 17:00N 70°49' W 154°00'0 0.0 1030.6 -37.6
2018-Feb-08 16:00N 70°49' W 154°00'0 0.0 1030.5 -37.8
2018-Feb-08 15:00N 70°49' W 154°00'0 0.0 1030.5 -38.9
2018-Feb-08 14:00N 70°49' W 154°00'0 0.0 1030.6 -40.1
2018-Feb-08 13:00N 70°49' W 154°00'0 0.0 1030.4 -41.6
2018-Feb-08 12:00N 70°49' W 154°00'0 0.0 1030.5 -43.8
2018-Feb-08 11:00N 70°49' W 154°00'0 0.0 1030.3 -46.6
2018-Feb-08 10:00N 70°49' W 154°00'0 0.0 1030.1 -49.0
2018-Feb-08 09:00N 70°49' W 154°00'0 0.0 1029.8 -51.5
2018-Feb-08 08:00N 70°49' W 154°00'0 0.0 1029.3 -54.1
2018-Feb-08 07:00N 70°49' W 154°00'0 0.0 1029.2 -55.7
2018-Feb-08 06:00N 70°49' W 154°00'0 0.0 1029.1 -55.3
2018-Feb-08 05:00N 70°49' W 154°00'0 0.0 1029.1 -56.4
2018-Feb-08 04:00N 70°49' W 154°00'0 0.0 1028.9 -57.2
2018-Feb-08 03:00N 70°49' W 154°00'0 0.0 1029.0 -57.5
2018-Feb-08 02:00N 70°49' W 154°00'0 0.0 1028.5 -57.2
2018-Feb-08 01:00N 70°49' W 154°00'0 0.0 1028.3 -56.8
2018-Feb-08 00:00N 70°49' W 154°00'0 0.0 1027.6 -57.0
2018-Feb-07 23:00N 70°49' W 154°00'0 0.0 1027.0 -57.6
2018-Feb-07 22:00N 70°49' W 154°00'0 0.0 1026.0 -57.7
2018-Feb-07 21:00N 70°49' W 154°00'0 0.0 1025.2 -57.8
2018-Feb-07 20:00N 70°49' W 154°00'0 0.0 1024.5 -58.6
2018-Feb-07 19:00N 70°49' W 154°00'   1024.0 -58.7
Track history (hours):
 
Tides and Currents Weather Stations Pressure Air Temp Water Temp Dewpoint Dewpoint Depression Visibility Wind Speed Wind Dir Waves Ship Positions

Drifting buoy 48633

Last reported at 2018-Feb-17 18:09 UTC. Time now 2018-Feb-17 19:24 UTC.
Position N 70°49' W 154°00'.

Barometer 1033.0 mb
Water temperature -10.3 ° C

Date/timePositionNaut miles runAvg speedWind from/ knotsBaromVisibWave heightAir tempDewpointWater temp
2018-Feb-17 18:09N 70°49' W 154°00'0 0.0 1033.0 -10.3
2018-Feb-17 17:04N 70°49' W 154°00'0 0.0 1033.1 -10.2
2018-Feb-17 17:00N 70°49' W 154°00'0 0.0 1033.1 -50.8
2018-Feb-17 16:04N 70°49' W 154°00'0 0.0 1033.1 -10.0
2018-Feb-17 16:00N 70°49' W 154°00'0 0.0 1033.1 -50.1 -10.0
2018-Feb-17 15:05N 70°49' W 154°00'0 0.0 1033.5 -9.9
2018-Feb-17 15:00N 70°49' W 154°00'0 0.0 1033.5 -48.6 -9.9
2018-Feb-17 14:05N 70°49' W 154°00'0 0.0 1033.6 -9.8
2018-Feb-17 13:05N 70°49' W 154°00'0 0.0 1033.7 -9.7
2018-Feb-17 13:00N 70°49' W 154°00'0 0.0 1033.7 -43.9 -9.7
2018-Feb-17 12:05N 70°49' W 154°00'0 0.0 1033.8 -9.7
2018-Feb-17 12:00N 70°49' W 154°00'0 0.0 1033.8 -42.7 -9.7
2018-Feb-17 11:05N 70°49' W 154°00'0 0.0 1033.8 -9.6
2018-Feb-17 11:00N 70°49' W 154°00'0 0.0 1033.8 -44.1 -9.6
2018-Feb-17 10:05N 70°49' W 154°00'0 0.0 1033.5 -9.5
2018-Feb-17 10:00N 70°49' W 154°00'0 0.0 1033.5 -44.9 -9.5
2018-Feb-17 09:04N 70°49' W 154°00'0 0.0 1033.1 -9.4
2018-Feb-17 09:00N 70°49' W 154°00'0 0.0 1033.1 -45.1 -9.4
2018-Feb-17 08:04N 70°49' W 154°00'0 0.0 1033.2 -9.2
2018-Feb-17 08:00N 70°49' W 154°00'0 0.0 1033.2 -47.4 -9.2
2018-Feb-17 07:04N 70°49' W 154°00'0 0.0 1032.8 -9.1
2018-Feb-17 07:00N 70°49' W 154°00'0 0.0 1032.8 -44.5 -9.1
2018-Feb-17 06:05N 70°49' W 154°00'0 0.0 1032.6 -9.0
2018-Feb-17 06:00N 70°49' W 154°00'0 0.0 1032.6 -35.8 -9.0
2018-Feb-17 05:04N 70°49' W 154°00'0 0.0 1032.5 -9.0
2018-Feb-17 05:00N 70°49' W 154°00'0 0.0 1032.5 -33.3 -9.0
2018-Feb-17 04:05N 70°49' W 154°00'0 0.0 1032.4 -9.0
2018-Feb-17 03:04N 70°49' W 154°00'0 0.0 1031.9 -9.0
2018-Feb-17 02:04N 70°49' W 154°00'0 0.0 1031.5 -9.0
2018-Feb-17 02:00N 70°49' W 154°00'0 0.0 1031.5 -29.3 -9.0
2018-Feb-17 01:04N 70°49' W 154°00'0 0.0 1031.3 -9.1
2018-Feb-17 01:00N 70°49' W 154°00'0 0.0 1031.3 -28.0 -9.1
2018-Feb-17 00:06N 70°49' W 154°00'0 0.0 1030.8 -9.1
2018-Feb-17 00:00N 70°49' W 154°00'0 0.0 1030.8 -27.6 -9.1
2018-Feb-16 23:05N 70°49' W 154°00'0 0.0 1030.5 -9.2
2018-Feb-16 23:00N 70°49' W 154°00'0 0.0 1030.5 -27.8 -9.2
2018-Feb-16 22:04N 70°49' W 154°00'0 0.0 1030.1 -9.2
2018-Feb-16 22:00N 70°49' W 154°00'0 0.0 1030.1 -28.2 -9.2
2018-Feb-16 21:00N 70°49' W 154°00'0 0.0 1029.7 -28.7 -9.3
2018-Feb-16 20:08N 70°49' W 154°00'0 0.0 1029.3 -9.3
2018-Feb-16 20:00N 70°49' W 154°00'0 0.0 1029.3 -29.5 -9.3
2018-Feb-16 19:05N 70°49' W 154°00'0 0.0 1028.7 -9.3
2018-Feb-16 19:00N 70°49' W 154°00'0 0.0 1028.7 -29.7 -9.3
2018-Feb-16 18:05N 70°49' W 154°00'0 0.0 1028.4 -9.3
2018-Feb-16 18:00N 70°49' W 154°00'0 0.0 1028.4 -30.2 -9.3
2018-Feb-16 17:05N 70°49' W 154°00'0 0.0 1027.9 -9.3
2018-Feb-16 17:00N 70°49' W 154°00'0 0.0 1027.9 -31.2 -9.3
2018-Feb-16 16:05N 70°49' W 154°00'0 0.0 1027.8 -9.3
2018-Feb-16 16:00N 70°49' W 154°00'0 0.0 1027.8 -33.1 -9.3
2018-Feb-16 15:05N 70°49' W 154°00'0 0.0 1027.4 -9.3
2018-Feb-16 15:00N 70°49' W 154°00'0 0.0 1027.4 -36.5 -9.3
2018-Feb-16 14:05N 70°49' W 154°00'0 0.0 1027.3 -9.2
2018-Feb-16 14:00N 70°49' W 154°00'0 0.0 1027.3 -34.8 -9.2
2018-Feb-16 13:05N 70°49' W 154°00'0 0.0 1027.3 -9.2
2018-Feb-16 13:00N 70°49' W 154°00'0 0.0 1027.3 -29.4 -9.2
2018-Feb-16 12:05N 70°49' W 154°00'0 0.0 1027.0 -9.3
2018-Feb-16 12:00N 70°49' W 154°00'0 0.0 1027.0 -29.0 -9.3
2018-Feb-16 11:06N 70°49' W 154°00'0 0.0 1026.7 -9.3
2018-Feb-16 11:00N 70°49' W 154°00'0 0.0 1026.7 -27.5 -9.3
2018-Feb-16 10:04N 70°49' W 154°00'0 0.0 1026.5 -9.3
2018-Feb-16 10:00N 70°49' W 154°00'0 0.0 1026.5 -28.1 -9.3
2018-Feb-16 09:00N 70°49' W 154°00'0 0.0 1026.1 -28.0 -9.4
2018-Feb-16 08:05N 70°49' W 154°00'0 0.0 1025.4 -9.4
2018-Feb-16 08:00N 70°49' W 154°00'0 0.0 1025.4 -27.5 -9.4
2018-Feb-16 07:05N 70°49' W 154°00'0 0.0 1024.9 -9.5
2018-Feb-16 07:00N 70°49' W 154°00'0 0.0 1024.9 -26.5 -9.5
2018-Feb-16 06:04N 70°49' W 154°00'0 0.0 1024.7 -9.5
2018-Feb-16 05:04N 70°49' W 154°00'0 0.0 1024.4 -9.6
2018-Feb-16 05:00N 70°49' W 154°00'0 0.0 1024.4 -26.5 -9.6
2018-Feb-16 04:06N 70°49' W 154°00'0 0.0 1023.8 -9.6
2018-Feb-16 04:00N 70°49' W 154°00'0 0.0 1023.8 -27.2 -9.6
2018-Feb-16 03:07N 70°49' W 154°00'0 0.0 1023.4 -9.7
2018-Feb-16 03:00N 70°49' W 154°00'0 0.0 1023.4 -27.3 -9.7
2018-Feb-16 02:04N 70°49' W 154°00'0 0.0 1023.1 -9.7
2018-Feb-16 01:04N 70°49' W 154°00'0 0.0 1022.8 -9.8
2018-Feb-16 01:00N 70°49' W 154°00'0 0.0 1022.8 -28.1 -9.8
2018-Feb-16 00:05N 70°49' W 154°00'0 0.0 1022.3 -9.9
2018-Feb-16 00:00N 70°49' W 154°00'0 0.0 1022.3 -27.9 -9.9
2018-Feb-15 23:07N 70°49' W 154°00'0 0.0 1021.9 -10.0
2018-Feb-15 23:00N 70°49' W 154°00'0 0.0 1021.9 -27.5 -10.0
2018-Feb-15 22:00N 70°49' W 154°00'0 0.0 1021.2 -29.0 -10.1
2018-Feb-15 21:05N 70°49' W 154°00'0 0.0 1020.6 -10.2
2018-Feb-15 21:00N 70°49' W 154°00'0 0.0 1020.6 -31.6
2018-Feb-15 20:05N 70°49' W 154°00'0 0.0 1020.0 -10.2
2018-Feb-15 20:00N 70°49' W 154°00'0 0.0 1020.0 -31.1
2018-Feb-15 19:05N 70°49' W 154°00'0 0.0 1019.2 -10.3
2018-Feb-15 19:00N 70°49' W 154°00'0 0.0 1019.2 -29.0
2018-Feb-15 18:00N 70°49' W 154°00'0 0.0 1018.8 -29.6
2018-Feb-15 17:05N 70°49' W 154°00'0 0.0 1018.5 -10.5
2018-Feb-15 17:00N 70°49' W 154°00'0 0.0 1018.5 -30.2
2018-Feb-15 16:04N 70°49' W 154°00'0 0.0 1018.0 -10.6
2018-Feb-15 16:00N 70°49' W 154°00'0 0.0 1018.0 -29.8
2018-Feb-15 15:04N 70°49' W 154°00'0 0.0 1017.5 -10.8
2018-Feb-15 15:00N 70°49' W 154°00'0 0.0 1017.5 -28.7
2018-Feb-15 14:06N 70°49' W 154°00'0 0.0 1017.2 -10.9
2018-Feb-15 14:00N 70°49' W 154°00'0 0.0 1017.2 -28.6
2018-Feb-15 13:05N 70°49' W 154°00'0 0.0 1016.6 -11.1
2018-Feb-15 13:00N 70°49' W 154°00'0 0.0 1016.6 -29.1
2018-Feb-15 12:00N 70°49' W 154°00'0 0.0 1016.0 -29.4 -11.2
2018-Feb-15 11:04N 70°49' W 154°00'0 0.0 1015.6 -11.5
2018-Feb-15 11:00N 70°49' W 154°00'0 0.0 1015.6 -29.0
2018-Feb-15 10:06N 70°49' W 154°00'0 0.0 1015.1 -11.7
2018-Feb-15 10:00N 70°49' W 154°00'0 0.0 1015.1 -29.4
2018-Feb-15 09:04N 70°49' W 154°00'0 0.0 1014.6 -11.9
2018-Feb-15 09:00N 70°49' W 154°00'0 0.0 1014.6 -31.2
2018-Feb-15 08:05N 70°49' W 154°00'0 0.0 1014.0 -12.2
2018-Feb-15 08:00N 70°49' W 154°00'0 0.0 1014.0 -36.1
2018-Feb-15 07:04N 70°49' W 154°00'0 0.0 1013.5 -12.3
2018-Feb-15 06:04N 70°49' W 154°00'0 0.0 1013.2 -12.5
2018-Feb-15 06:00N 70°49' W 154°00'0 0.0 1013.2 -41.6
2018-Feb-15 05:06N 70°49' W 154°00'0 0.0 1012.8 -12.7
2018-Feb-15 05:00N 70°49' W 154°00'0 0.0 1012.8 -43.2
2018-Feb-15 04:05N 70°49' W 154°00'0 0.0 1012.6 -12.9
2018-Feb-15 04:00N 70°49' W 154°00'0 0.0 1012.6 -43.4
2018-Feb-15 03:04N 70°49' W 154°00'0 0.0 1012.6 -13.1
2018-Feb-15 03:00N 70°49' W 154°00'0 0.0 1012.6 -44.7
2018-Feb-15 02:04N 70°49' W 154°00'0 0.0 1012.4 -13.3
2018-Feb-15 02:00N 70°49' W 154°00'0 0.0 1012.4 -45.8
2018-Feb-15 01:05N 70°49' W 154°00'0 0.0 1014.1 -14.8
2018-Feb-15 01:00N 70°49' W 154°00'0 0.0 1012.5 -46.9
2018-Feb-13 18:00N 70°49' W 154°00'0 0.0 1020.3 -57.4
2018-Feb-13 13:05N 70°49' W 154°00'0 0.0 1015.2 -10.6
2018-Feb-13 13:00N 70°49' W 154°00'0 0.0 1015.2 -52.4
2018-Feb-13 12:08N 70°49' W 154°00'0 0.0 1013.9 -10.3
2018-Feb-13 12:00N 70°49' W 154°00'0 0.0 1013.9 -49.4
2018-Feb-13 11:06N 70°49' W 154°00'0 0.0 1012.5 -10.1
2018-Feb-13 11:00N 70°49' W 154°00'0 0.0 1012.5 -44.8
2018-Feb-13 10:04N 70°49' W 154°00'0 0.0 1011.1 -9.9
2018-Feb-13 10:00N 70°49' W 154°00'0 0.0 1011.1 -43.3 -9.9
2018-Feb-13 09:08N 70°49' W 154°00'0 0.0 1009.8 -9.8
2018-Feb-13 09:00N 70°49' W 154°00'0 0.0 1009.8 -42.7 -9.8
2018-Feb-13 08:04N 70°49' W 154°00'0 0.0 1008.8 -9.7
2018-Feb-13 08:00N 70°49' W 154°00'0 0.0 1008.8 -42.1 -9.7
2018-Feb-13 07:07N 70°49' W 154°00'0 0.0 1007.4 -9.6
2018-Feb-13 07:00N 70°49' W 154°00'0 0.0 1007.4 -41.8 -9.6
2018-Feb-13 06:04N 70°49' W 154°00'0 0.0 1006.4 -9.5
2018-Feb-13 06:00N 70°49' W 154°00'0 0.0 1006.4 -40.6 -9.5
2018-Feb-13 05:04N 70°49' W 154°00'0 0.0 1005.2 -9.5
2018-Feb-13 05:00N 70°49' W 154°00'0 0.0 1005.2 -39.2 -9.5
2018-Feb-13 04:04N 70°49' W 154°00'0 0.0 1003.8 -9.4
2018-Feb-13 04:00N 70°49' W 154°00'0 0.0 1003.8 -36.5 -9.4
2018-Feb-13 03:07N 70°49' W 154°00'0 0.0 1002.8 -9.4
2018-Feb-13 03:00N 70°49' W 154°00'0 0.0 1002.8 -34.0 -9.4
2018-Feb-13 02:04N 70°49' W 154°00'0 0.0 1002.0 -9.4
2018-Feb-13 02:00N 70°49' W 154°00'0 0.0 1002.0 -32.4 -9.4
2018-Feb-13 01:04N 70°49' W 154°00'0 0.0 1001.2 -9.5
2018-Feb-13 01:00N 70°49' W 154°00'0 0.0 1001.2 -32.0 -9.5
2018-Feb-13 00:05N 70°49' W 154°00'0 0.0 1000.9 -9.5
2018-Feb-13 00:00N 70°49' W 154°00'0 0.0 1000.9 -30.3 -9.5
2018-Feb-12 23:07N 70°49' W 154°00'0 0.0 1000.5 -9.5
2018-Feb-12 23:00N 70°49' W 154°00'0 0.0 1000.5 -29.4 -9.5
2018-Feb-12 22:00N 70°49' W 154°00'0 0.0 999.9 -28.4 -9.5
2018-Feb-12 21:05N 70°49' W 154°00'0 0.0 999.4 -9.6
2018-Feb-12 21:00N 70°49' W 154°00'0 0.0 999.4 -27.6 -9.6
2018-Feb-12 20:06N 70°49' W 154°00'0 0.0 998.9 -9.6
2018-Feb-12 20:00N 70°49' W 154°00'0 0.0 998.9 -27.2 -9.6
2018-Feb-12 19:06N 70°49' W 154°00'0 0.0 998.6 -9.7
2018-Feb-12 19:00N 70°49' W 154°00'0 0.0 998.6 -27.4 -9.7
2018-Feb-12 18:07N 70°49' W 154°00'0 0.0 998.4 -9.7
2018-Feb-12 18:00N 70°49' W 154°00'0 0.0 998.4 -27.6 -9.7
2018-Feb-12 17:04N 70°49' W 154°00'0 0.0 998.5 -9.7
2018-Feb-12 17:00N 70°49' W 154°00'0 0.0 998.5 -27.9 -9.7
2018-Feb-12 16:05N 70°49' W 154°00'0 0.0 998.7 -9.8
2018-Feb-12 16:00N 70°49' W 154°00'0 0.0 998.7 -28.2 -9.8
2018-Feb-12 15:05N 70°49' W 154°00'0 0.0 998.7 -9.8
2018-Feb-12 15:00N 70°49' W 154°00'0 0.0 998.7 -27.6 -9.8
2018-Feb-12 14:00N 70°49' W 154°00'0 0.0 999.0 -26.7 -9.9
2018-Feb-12 13:00N 70°49' W 154°00'0 0.0 999.6 -26.8 -10.0
2018-Feb-12 12:00N 70°49' W 154°00'0 0.0 1000.4 -27.8
2018-Feb-12 11:00N 70°49' W 154°00'0 0.0 1000.7 -28.7
2018-Feb-12 10:00N 70°49' W 154°00'0 0.0 1001.2 -29.6
2018-Feb-12 09:00N 70°49' W 154°00'0 0.0 1001.4 -31.7
2018-Feb-12 08:00N 70°49' W 154°00'0 0.0 1001.8 -33.6
2018-Feb-12 07:00N 70°49' W 154°00'0 0.0 1002.2 -35.9
2018-Feb-12 06:00N 70°49' W 154°00'0 0.0 1002.7 -33.9
2018-Feb-12 05:00N 70°49' W 154°00'0 0.0 1003.6 -28.9
2018-Feb-12 04:00N 70°49' W 154°00'0 0.0 1004.3 -27.4
2018-Feb-12 03:00N 70°49' W 154°00'0 0.0 1005.0 -28.4
2018-Feb-12 02:00N 70°49' W 154°00'0 0.0 1005.6 -29.4
2018-Feb-12 01:00N 70°49' W 154°00'0 0.0 1006.4 -30.3
2018-Feb-12 00:00N 70°49' W 154°00'0 0.0 1007.2 -31.7
2018-Feb-11 23:00N 70°49' W 154°00'0 0.0 1007.9 -33.4
2018-Feb-11 22:00N 70°49' W 154°00'0 0.0 1008.4 -35.6
2018-Feb-11 21:00N 70°49' W 154°00'0 0.0 1008.8 -38.1
2018-Feb-11 20:00N 70°49' W 154°00'0 0.0 1009.5 -39.8
2018-Feb-11 19:00N 70°49' W 154°00'0 0.0 1010.1 -43.4
2018-Feb-11 18:00N 70°49' W 154°00'0 0.0 1010.4 -45.6
2018-Feb-11 17:00N 70°49' W 154°00'0 0.0 1010.9 -46.9
2018-Feb-11 16:00N 70°49' W 154°00'0 0.0 1011.2 -47.7
2018-Feb-11 15:00N 70°49' W 154°00'0 0.0 1011.4 -49.5
2018-Feb-11 14:00N 70°49' W 154°00'0 0.0 1011.7 -49.4
2018-Feb-11 13:00N 70°49' W 154°00'0 0.0 1012.2 -47.9
2018-Feb-11 12:00N 70°49' W 154°00'0 0.0 1011.9 -46.0
2018-Feb-11 11:00N 70°49' W 154°00'0 0.0 1011.8 -46.6
2018-Feb-11 10:00N 70°49' W 154°00'0 0.0 1011.9 -49.8
2018-Feb-11 09:00N 70°49' W 154°00'0 0.0 1012.4 -49.5
2018-Feb-11 08:00N 70°49' W 154°00'0 0.0 1012.6 -48.1
2018-Feb-11 07:00N 70°49' W 154°00'0 0.0 1013.0 -47.7
2018-Feb-11 06:00N 70°49' W 154°00'0 0.0 1013.5 -47.5
2018-Feb-11 05:00N 70°49' W 154°00'0 0.0 1014.3 -49.4
2018-Feb-11 04:00N 70°49' W 154°00'0 0.0 1014.5 -48.9
2018-Feb-11 03:00N 70°49' W 154°00'0 0.0 1015.7 -48.3
2018-Feb-11 02:00N 70°49' W 154°00'0 0.0 1015.8 -46.8
2018-Feb-11 01:00N 70°49' W 154°00'0 0.0 1016.4 -46.5
2018-Feb-11 00:00N 70°49' W 154°00'0 0.0 1017.3 -47.1
2018-Feb-10 23:00N 70°49' W 154°00'0 0.0 1018.4 -47.8
2018-Feb-10 22:00N 70°49' W 154°00'0 0.0 1019.5 -48.3
2018-Feb-10 21:00N 70°49' W 154°00'0 0.0 1020.3 -48.1
2018-Feb-10 20:00N 70°49' W 154°00'0 0.0 1020.9 -48.0
2018-Feb-10 19:00N 70°49' W 154°00'0 0.0 1021.1 -47.9
2018-Feb-10 18:00N 70°49' W 154°00'0 0.0 1022.3 -47.8
2018-Feb-10 17:00N 70°49' W 154°00'0 0.0 1022.7 -47.8
2018-Feb-10 16:00N 70°49' W 154°00'0 0.0 1023.3 -47.6
2018-Feb-10 15:00N 70°49' W 154°00'0 0.0 1024.0 -46.8
2018-Feb-10 14:00N 70°49' W 154°00'0 0.0 1024.5 -45.3
2018-Feb-10 13:00N 70°49' W 154°00'0 0.0 1025.4 -42.5
2018-Feb-10 12:00N 70°49' W 154°00'0 0.0 1026.0 -39.1
2018-Feb-10 11:00N 70°49' W 154°00'0 0.0 1026.2 -40.2
2018-Feb-10 10:00N 70°49' W 154°00'0 0.0 1026.8 -38.8
2018-Feb-10 09:00N 70°49' W 154°00'0 0.0 1026.6 -37.9
2018-Feb-10 08:00N 70°49' W 154°00'0 0.0 1027.0 -36.5
2018-Feb-10 07:00N 70°49' W 154°00'0 0.0 1027.2 -38.3
2018-Feb-10 06:00N 70°49' W 154°00'0 0.0 1027.0 -41.3
2018-Feb-10 05:00N 70°49' W 154°00'0 0.0 1026.9 -45.7
2018-Feb-10 04:00N 70°49' W 154°00'0 0.0 1027.0 -39.8
2018-Feb-10 03:00N 70°49' W 154°00'0 0.0 1026.9 -37.5
2018-Feb-10 02:00N 70°49' W 154°00'0 0.0 1027.2 -40.8
2018-Feb-10 01:00N 70°49' W 154°00'0 0.0 1026.9 -45.6
2018-Feb-09 23:00N 70°49' W 154°00'0 0.0 1027.5 -48.7
2018-Feb-09 22:00N 70°49' W 154°00'0 0.0 1027.4 -47.1
2018-Feb-09 21:00N 70°49' W 154°00'0 0.0 1026.8 -50.6
2018-Feb-09 20:00N 70°49' W 154°00'0 0.0 1026.0 -51.6
2018-Feb-09 19:00N 70°49' W 154°00'0 0.0 1026.0 -51.1
2018-Feb-09 18:00N 70°49' W 154°00'0 0.0 1025.5 -50.9
2018-Feb-09 17:00N 70°49' W 154°00'0 0.0 1025.6 -50.7
2018-Feb-09 16:00N 70°49' W 154°00'0 0.0 1025.8 -51.1
2018-Feb-09 15:00N 70°49' W 154°00'0 0.0 1025.7 -51.4
2018-Feb-09 14:00N 70°49' W 154°00'0 0.0 1025.6 -52.0
2018-Feb-09 13:00N 70°49' W 154°00'0 0.0 1026.0 -52.4
2018-Feb-09 12:00N 70°49' W 154°00'0 0.0 1026.4 -52.2
2018-Feb-09 11:00N 70°49' W 154°00'0 0.0 1026.5 -51.5
2018-Feb-09 10:00N 70°49' W 154°00'0 0.0 1027.0 -50.4
2018-Feb-09 09:00N 70°49' W 154°00'0 0.0 1027.1 -49.5
2018-Feb-09 08:00N 70°49' W 154°00'0 0.0 1028.0 -47.9
2018-Feb-09 07:00N 70°49' W 154°00'0 0.0 1028.3 -49.5
2018-Feb-09 06:00N 70°49' W 154°00'0 0.0 1028.6 -48.5
2018-Feb-09 05:00N 70°49' W 154°00'0 0.0 1029.3 -47.1
2018-Feb-09 04:00N 70°49' W 154°00'0 0.0 1029.7 -45.9
2018-Feb-09 03:00N 70°49' W 154°00'0 0.0 1029.8 -44.7
2018-Feb-09 02:00N 70°49' W 154°00'0 0.0 1030.1 -41.7
2018-Feb-09 01:00N 70°49' W 154°00'0 0.0 1030.4 -36.2
2018-Feb-09 00:00N 70°49' W 154°00'0 0.0 1030.6 -33.4
2018-Feb-08 23:00N 70°49' W 154°00'0 0.0 1031.0 -34.3
2018-Feb-08 22:00N 70°49' W 154°00'0 0.0 1030.6 -34.9
2018-Feb-08 21:00N 70°49' W 154°00'0 0.0 1030.6 -35.3
2018-Feb-08 20:00N 70°49' W 154°00'0 0.0 1030.5 -35.5
2018-Feb-08 19:00N 70°49' W 154°00'0 0.0 1030.5 -36.2
2018-Feb-08 18:00N 70°49' W 154°00'0 0.0 1030.4 -37.0
2018-Feb-08 17:00N 70°49' W 154°00'0 0.0 1030.6 -37.6
2018-Feb-08 16:00N 70°49' W 154°00'0 0.0 1030.5 -37.8
2018-Feb-08 15:00N 70°49' W 154°00'0 0.0 1030.5 -38.9
2018-Feb-08 14:00N 70°49' W 154°00'0 0.0 1030.6 -40.1
2018-Feb-08 13:00N 70°49' W 154°00'0 0.0 1030.4 -41.6
2018-Feb-08 12:00N 70°49' W 154°00'0 0.0 1030.5 -43.8
2018-Feb-08 11:00N 70°49' W 154°00'0 0.0 1030.3 -46.6
2018-Feb-08 10:00N 70°49' W 154°00'0 0.0 1030.1 -49.0
2018-Feb-08 09:00N 70°49' W 154°00'0 0.0 1029.8 -51.5
2018-Feb-08 08:00N 70°49' W 154°00'0 0.0 1029.3 -54.1
2018-Feb-08 07:00N 70°49' W 154°00'0 0.0 1029.2 -55.7
2018-Feb-08 06:00N 70°49' W 154°00'0 0.0 1029.1 -55.3
2018-Feb-08 05:00N 70°49' W 154°00'0 0.0 1029.1 -56.4
2018-Feb-08 04:00N 70°49' W 154°00'0 0.0 1028.9 -57.2
2018-Feb-08 03:00N 70°49' W 154°00'0 0.0 1029.0 -57.5
2018-Feb-08 02:00N 70°49' W 154°00'0 0.0 1028.5 -57.2
2018-Feb-08 01:00N 70°49' W 154°00'0 0.0 1028.3 -56.8
2018-Feb-08 00:00N 70°49' W 154°00'0 0.0 1027.6 -57.0
2018-Feb-07 23:00N 70°49' W 154°00'0 0.0 1027.0 -57.6
2018-Feb-07 22:00N 70°49' W 154°00'0 0.0 1026.0 -57.7
2018-Feb-07 21:00N 70°49' W 154°00'0 0.0 1025.2 -57.8
2018-Feb-07 20:00N 70°49' W 154°00'0 0.0 1024.5 -58.6
2018-Feb-07 19:00N 70°49' W 154°00'   1024.0 -58.7

Dump ship's entire track history